createdAt,value
2018-06-25T00:00:47.049Z,13.10
2018-06-25T00:01:46.851Z,13.10
2018-06-25T00:02:46.853Z,12.90
2018-06-25T00:03:47.061Z,13.20
2018-06-25T00:04:46.845Z,13.70
2018-06-25T00:05:46.861Z,13.10
2018-06-25T00:06:47.077Z,13.00
2018-06-25T00:07:46.846Z,13.20
2018-06-25T00:08:46.864Z,13.00
2018-06-25T00:09:46.850Z,13.60
2018-06-25T00:10:46.866Z,14.00
2018-06-25T00:11:46.849Z,13.50
2018-06-25T00:12:47.068Z,15.30
2018-06-25T00:13:46.855Z,16.40
2018-06-25T00:14:47.066Z,17.70
2018-06-25T00:15:46.856Z,17.40
2018-06-25T00:16:46.874Z,17.70
2018-06-25T00:17:47.070Z,17.70
2018-06-25T00:18:46.861Z,18.10
2018-06-25T00:19:46.860Z,19.50
2018-06-25T00:20:46.861Z,17.50
2018-06-25T00:21:46.881Z,19.90
2018-06-25T00:22:47.080Z,19.30
2018-06-25T00:23:46.878Z,18.70
2018-06-25T00:24:47.077Z,19.60
2018-06-25T00:25:46.881Z,18.40
2018-06-25T00:26:46.869Z,19.10
2018-06-25T00:27:46.880Z,18.90
2018-06-25T00:28:47.082Z,18.80
2018-06-25T00:29:47.081Z,19.00
2018-06-25T00:30:46.885Z,17.30
2018-06-25T00:31:46.871Z,16.40
2018-06-25T00:32:47.074Z,17.20
2018-06-25T00:33:47.101Z,16.70
2018-06-25T00:34:46.887Z,16.20
2018-06-25T00:35:46.875Z,15.90
2018-06-25T00:36:46.887Z,16.00
2018-06-25T00:37:47.080Z,16.30
2018-06-25T00:38:46.891Z,16.50
2018-06-25T00:39:46.878Z,16.90
2018-06-25T00:40:46.886Z,16.90
2018-06-25T00:41:47.082Z,16.50
2018-06-25T00:42:46.882Z,16.20
2018-06-25T00:43:46.881Z,16.30
2018-06-25T00:44:46.884Z,15.40
2018-06-25T00:45:47.102Z,15.20
2018-06-25T00:46:46.886Z,15.10
2018-06-25T00:47:46.896Z,15.90
2018-06-25T00:48:46.888Z,14.50
2018-06-25T00:49:47.095Z,15.90
2018-06-25T00:50:46.892Z,14.60
2018-06-25T00:51:46.899Z,15.00
2018-06-25T00:52:46.898Z,13.60
2018-06-25T00:53:46.891Z,14.50
2018-06-25T00:54:46.890Z,14.20
2018-06-25T00:55:46.889Z,12.80
2018-06-25T00:56:46.896Z,13.40
2018-06-25T00:57:46.896Z,14.30
2018-06-25T00:58:46.904Z,13.60
2018-06-25T00:59:46.909Z,13.90
2018-06-25T01:00:46.917Z,13.10
2018-06-25T01:01:47.113Z,13.70
2018-06-25T01:02:46.905Z,13.60
2018-06-25T01:03:46.917Z,12.90
2018-06-25T01:04:46.899Z,13.30
2018-06-25T01:05:46.914Z,13.60
2018-06-25T01:06:47.115Z,12.90
2018-06-25T01:07:46.901Z,12.80
2018-06-25T01:08:46.919Z,12.20
2018-06-25T01:09:47.115Z,12.50
2018-06-25T01:10:46.916Z,12.60
2018-06-25T01:11:47.114Z,12.20
2018-06-25T01:12:47.120Z,12.30
2018-06-25T01:13:46.922Z,11.50
2018-06-25T01:14:46.908Z,11.80
2018-06-25T01:15:46.909Z,12.50
2018-06-25T01:16:47.125Z,11.70
2018-06-25T01:17:46.927Z,11.80
2018-06-25T01:18:46.925Z,11.60
2018-06-25T01:19:46.942Z,12.00
2018-06-25T01:20:47.127Z,11.40
2018-06-25T01:21:46.927Z,11.70
2018-06-25T01:22:46.929Z,12.00
2018-06-25T01:23:46.927Z,12.00
2018-06-25T01:24:46.928Z,11.20
2018-06-25T01:25:46.918Z,10.00
2018-06-25T01:26:46.944Z,9.80
2018-06-25T01:27:47.136Z,10.20
2018-06-25T01:28:46.940Z,9.50
2018-06-25T01:29:46.922Z,9.80
2018-06-25T01:30:47.126Z,9.90
2018-06-25T01:31:46.932Z,10.00
2018-06-25T01:32:46.935Z,10.00
2018-06-25T01:33:47.128Z,9.40
2018-06-25T01:34:46.938Z,9.80
2018-06-25T01:35:47.139Z,9.90
2018-06-25T01:36:46.949Z,9.70
2018-06-25T01:37:46.953Z,9.40
2018-06-25T01:38:47.132Z,9.60
2018-06-25T01:39:46.943Z,10.10
2018-06-25T01:40:46.932Z,9.90
2018-06-25T01:41:46.936Z,10.20
2018-06-25T01:42:46.936Z,10.20
2018-06-25T01:43:47.147Z,10.80
2018-06-25T01:44:46.939Z,11.00
2018-06-25T01:45:46.937Z,10.30
2018-06-25T01:46:46.938Z,11.40
2018-06-25T01:47:46.942Z,11.10
2018-06-25T01:48:46.949Z,11.80
2018-06-25T01:49:47.143Z,11.60
2018-06-25T01:50:46.972Z,11.90
2018-06-25T01:51:46.942Z,12.60
2018-06-25T01:52:46.943Z,12.60
2018-06-25T01:53:46.942Z,13.30
2018-06-25T01:54:47.162Z,13.40
2018-06-25T01:55:46.954Z,13.10
2018-06-25T01:56:46.947Z,13.40
2018-06-25T01:57:46.981Z,13.40
2018-06-25T01:58:46.952Z,13.70
2018-06-25T01:59:46.954Z,13.20
2018-06-25T02:00:46.949Z,11.20
2018-06-25T02:01:47.171Z,7.00
2018-06-25T02:02:46.965Z,6.50
2018-06-25T02:03:46.953Z,6.70
2018-06-25T02:04:46.959Z,5.90
2018-06-25T02:05:47.170Z,4.90
2018-06-25T02:06:47.176Z,4.30
2018-06-25T02:07:46.989Z,4.00
2018-06-25T02:08:47.159Z,4.30
2018-06-25T02:09:46.980Z,3.90
2018-06-25T02:10:46.959Z,4.40
2018-06-25T02:11:47.176Z,4.00
2018-06-25T02:12:46.970Z,4.20
2018-06-25T02:13:46.989Z,4.30
2018-06-25T02:14:46.985Z,4.40
2018-06-25T02:15:46.968Z,4.80
2018-06-25T02:16:46.980Z,5.00
2018-06-25T02:17:46.965Z,5.80
2018-06-25T02:18:46.975Z,5.30
2018-06-25T02:19:47.194Z,5.30
2018-06-25T02:20:47.166Z,5.50
2018-06-25T02:21:46.978Z,5.20
2018-06-25T02:22:46.968Z,5.80
2018-06-25T02:23:46.966Z,6.10
2018-06-25T02:24:47.169Z,5.60
2018-06-25T02:25:47.169Z,5.70
2018-06-25T02:26:46.981Z,5.70
2018-06-25T02:27:46.992Z,6.00
2018-06-25T02:28:46.974Z,5.70
2018-06-25T02:29:47.180Z,5.90
2018-06-25T02:30:46.983Z,6.60
2018-06-25T02:31:47.188Z,6.20
2018-06-25T02:32:46.973Z,6.50
2018-06-25T02:33:46.974Z,6.20
2018-06-25T02:34:46.988Z,6.00
2018-06-25T02:35:46.976Z,6.90
2018-06-25T02:36:47.174Z,6.00
2018-06-25T02:37:47.004Z,7.00
2018-06-25T02:38:46.995Z,6.20
2018-06-25T02:39:46.977Z,5.90
2018-06-25T02:40:47.192Z,6.60
2018-06-25T02:41:46.979Z,6.30
2018-06-25T02:42:46.992Z,6.70
2018-06-25T02:43:46.980Z,7.10
2018-06-25T02:44:46.978Z,7.40
2018-06-25T02:45:47.182Z,7.70
2018-06-25T02:46:47.183Z,7.40
2018-06-25T02:47:46.981Z,7.30
2018-06-25T02:48:47.186Z,7.50
2018-06-25T02:49:46.996Z,7.30
2018-06-25T02:50:46.984Z,7.00
2018-06-25T02:51:46.985Z,7.50
2018-06-25T02:52:47.195Z,7.30
2018-06-25T02:53:46.995Z,7.80
2018-06-25T02:54:46.999Z,7.30
2018-06-25T02:55:46.986Z,7.60
2018-06-25T02:56:47.001Z,6.70
2018-06-25T02:57:46.991Z,7.00
2018-06-25T02:58:46.999Z,7.00
2018-06-25T02:59:46.990Z,6.90
2018-06-25T03:00:46.988Z,6.90
2018-06-25T03:01:47.000Z,7.20
2018-06-25T03:02:47.207Z,7.00
2018-06-25T03:03:46.995Z,6.80
2018-06-25T03:04:46.987Z,6.60
2018-06-25T03:05:46.990Z,6.70
2018-06-25T03:06:47.004Z,6.50
2018-06-25T03:07:47.210Z,6.50
2018-06-25T03:08:46.998Z,6.60
2018-06-25T03:09:47.008Z,6.70
2018-06-25T03:10:47.002Z,7.00
2018-06-25T03:11:46.994Z,6.40
2018-06-25T03:12:47.000Z,6.50
2018-06-25T03:13:46.994Z,5.90
2018-06-25T03:14:47.005Z,6.10
2018-06-25T03:15:46.998Z,6.60
2018-06-25T03:16:46.996Z,6.00
2018-06-25T03:17:47.210Z,6.50
2018-06-25T03:18:46.998Z,6.00
2018-06-25T03:19:47.008Z,6.60
2018-06-25T03:20:46.998Z,6.20
2018-06-25T03:21:47.011Z,6.20
2018-06-25T03:22:47.225Z,6.10
2018-06-25T03:23:47.214Z,6.10
2018-06-25T03:24:47.011Z,5.90
2018-06-25T03:25:47.005Z,6.00
2018-06-25T03:26:47.004Z,5.90
2018-06-25T03:27:47.039Z,6.20
2018-06-25T03:28:47.013Z,6.00
2018-06-25T03:29:47.020Z,6.00
2018-06-25T03:30:47.206Z,5.70
2018-06-25T03:31:47.004Z,5.60
2018-06-25T03:32:47.032Z,5.30
2018-06-25T03:33:47.009Z,5.80
2018-06-25T03:34:47.021Z,5.70
2018-06-25T03:35:47.222Z,5.00
2018-06-25T03:36:47.018Z,5.50
2018-06-25T03:37:47.021Z,5.10
2018-06-25T03:38:47.233Z,5.30
2018-06-25T03:39:47.027Z,5.00
2018-06-25T03:40:47.030Z,5.30
2018-06-25T03:41:47.032Z,5.20
2018-06-25T03:42:47.026Z,5.20
2018-06-25T03:43:47.019Z,5.70
2018-06-25T03:44:47.209Z,4.80
2018-06-25T03:45:47.211Z,5.30
2018-06-25T03:46:47.022Z,5.10
2018-06-25T03:47:47.014Z,4.90
2018-06-25T03:48:47.012Z,5.30
2018-06-25T03:49:47.010Z,5.00
2018-06-25T03:50:47.037Z,5.20
2018-06-25T03:51:47.025Z,5.40
2018-06-25T03:52:47.011Z,5.30
2018-06-25T03:53:47.011Z,5.20
2018-06-25T03:54:47.026Z,5.80
2018-06-25T03:55:47.013Z,6.00
2018-06-25T03:56:47.227Z,6.20
2018-06-25T03:57:47.032Z,5.70
2018-06-25T03:58:47.015Z,5.90
2018-06-25T03:59:47.018Z,5.60
2018-06-25T04:00:47.036Z,5.60
2018-06-25T04:01:47.025Z,5.90
2018-06-25T04:02:47.041Z,6.10
2018-06-25T04:03:47.023Z,6.50
2018-06-25T04:04:47.232Z,6.90
2018-06-25T04:05:47.016Z,6.90
2018-06-25T04:06:47.029Z,5.90
2018-06-25T04:07:47.054Z,6.70
2018-06-25T04:08:47.042Z,6.50
2018-06-25T04:09:47.031Z,6.10
2018-06-25T04:10:47.031Z,6.60
2018-06-25T04:11:47.016Z,6.10
2018-06-25T04:12:47.017Z,6.40
2018-06-25T04:13:47.032Z,6.30
2018-06-25T04:14:47.037Z,5.80
2018-06-25T04:15:47.045Z,5.80
2018-06-25T04:16:47.034Z,6.40
2018-06-25T04:17:47.021Z,6.00
2018-06-25T04:18:47.018Z,6.40
2018-06-25T04:19:47.222Z,5.60
2018-06-25T04:20:47.285Z,6.00
2018-06-25T04:21:47.219Z,5.80
2018-06-25T04:22:47.017Z,6.90
2018-06-25T04:23:47.081Z,5.40
2018-06-25T04:24:47.015Z,6.00
2018-06-25T04:25:47.229Z,5.50
2018-06-25T04:26:47.018Z,5.50
2018-06-25T04:27:47.019Z,5.80
2018-06-25T04:28:47.032Z,5.70
2018-06-25T04:29:47.017Z,5.60
2018-06-25T04:30:47.293Z,5.50
2018-06-25T04:31:47.022Z,6.30
2018-06-25T04:32:47.023Z,5.70
2018-06-25T04:33:47.222Z,6.20
2018-06-25T04:34:47.020Z,5.60
2018-06-25T04:35:47.032Z,5.80
2018-06-25T04:36:47.020Z,6.20
2018-06-25T04:37:47.021Z,5.60
2018-06-25T04:38:47.025Z,5.20
2018-06-25T04:39:47.225Z,5.50
2018-06-25T04:40:47.236Z,6.10
2018-06-25T04:41:47.020Z,6.10
2018-06-25T04:42:47.020Z,6.10
2018-06-25T04:43:47.030Z,6.10
2018-06-25T04:44:47.234Z,5.40
2018-06-25T04:45:47.024Z,6.10
2018-06-25T04:46:47.021Z,6.40
2018-06-25T04:47:47.033Z,5.60
2018-06-25T04:48:47.032Z,5.80
2018-06-25T04:49:47.024Z,5.70
2018-06-25T04:50:47.024Z,5.90
2018-06-25T04:51:47.041Z,6.10
2018-06-25T04:52:47.025Z,5.30
2018-06-25T04:53:47.024Z,6.00
2018-06-25T04:54:47.035Z,6.60
2018-06-25T04:55:47.229Z,6.00
2018-06-25T04:56:47.025Z,5.50
2018-06-25T04:57:47.026Z,6.00
2018-06-25T04:58:47.029Z,5.80
2018-06-25T04:59:47.050Z,5.80
2018-06-25T05:00:47.036Z,5.50
2018-06-25T05:01:47.228Z,6.00
2018-06-25T05:02:47.049Z,6.00
2018-06-25T05:03:47.027Z,6.20
2018-06-25T05:04:47.041Z,6.00
2018-06-25T05:05:47.029Z,5.70
2018-06-25T05:06:47.045Z,6.00
2018-06-25T05:07:47.033Z,6.00
2018-06-25T05:08:47.050Z,5.90
2018-06-25T05:09:47.030Z,6.00
2018-06-25T05:10:47.235Z,5.70
2018-06-25T05:11:47.239Z,6.50
2018-06-25T05:12:47.236Z,6.00
2018-06-25T05:13:47.032Z,6.20
2018-06-25T05:14:47.233Z,6.20
2018-06-25T05:15:47.236Z,5.70
2018-06-25T05:16:47.032Z,5.60
2018-06-25T05:17:47.035Z,6.10
2018-06-25T05:18:47.036Z,5.60
2018-06-25T05:19:47.037Z,6.00
2018-06-25T05:20:47.048Z,5.80
2018-06-25T05:21:47.039Z,6.10
2018-06-25T05:22:47.048Z,5.60
2018-06-25T05:23:47.037Z,5.50
2018-06-25T05:24:47.040Z,5.40
2018-06-25T05:25:47.038Z,4.80
2018-06-25T05:26:47.049Z,5.40
2018-06-25T05:27:47.059Z,5.00
2018-06-25T05:28:47.243Z,5.00
2018-06-25T05:29:47.245Z,5.00
2018-06-25T05:30:47.244Z,4.70
2018-06-25T05:31:47.075Z,4.40
2018-06-25T05:32:47.041Z,4.70
2018-06-25T05:33:47.046Z,3.80
2018-06-25T05:34:47.257Z,4.20
2018-06-25T05:35:47.047Z,4.60
2018-06-25T05:36:47.043Z,4.60
2018-06-25T05:37:47.048Z,4.70
2018-06-25T05:38:47.046Z,4.70
2018-06-25T05:39:47.251Z,4.30
2018-06-25T05:40:47.059Z,4.50
2018-06-25T05:41:47.050Z,4.50
2018-06-25T05:42:47.050Z,4.20
2018-06-25T05:43:47.048Z,4.20
2018-06-25T05:44:47.062Z,4.70
2018-06-25T05:45:47.050Z,4.40
2018-06-25T05:46:47.051Z,4.70
2018-06-25T05:47:47.054Z,4.60
2018-06-25T05:48:47.285Z,4.10
2018-06-25T05:49:47.274Z,3.90
2018-06-25T05:50:47.064Z,4.40
2018-06-25T05:51:47.051Z,3.80
2018-06-25T05:52:47.062Z,4.00
2018-06-25T05:53:47.053Z,4.20
2018-06-25T05:54:47.253Z,4.40
2018-06-25T05:55:47.265Z,4.80
2018-06-25T05:56:47.053Z,4.40
2018-06-25T05:57:47.055Z,4.30
2018-06-25T05:58:47.056Z,4.30
2018-06-25T05:59:47.064Z,4.00
2018-06-25T06:00:47.055Z,4.70
2018-06-25T06:01:47.052Z,4.30
2018-06-25T06:02:47.055Z,4.00
2018-06-25T06:03:47.056Z,4.50
2018-06-25T06:04:47.056Z,4.60
2018-06-25T06:05:47.054Z,4.40
2018-06-25T06:06:47.059Z,4.60
2018-06-25T06:07:47.058Z,4.60
2018-06-25T06:08:47.071Z,5.10
2018-06-25T06:09:47.080Z,5.10
2018-06-25T06:10:47.061Z,4.50
2018-06-25T06:11:47.263Z,5.10
2018-06-25T06:12:47.062Z,5.30
2018-06-25T06:13:47.102Z,4.30
2018-06-25T06:14:47.271Z,4.80
2018-06-25T06:15:47.062Z,4.60
2018-06-25T06:16:47.076Z,4.70
2018-06-25T06:17:47.062Z,4.80
2018-06-25T06:18:47.063Z,5.00
2018-06-25T06:19:47.275Z,5.70
2018-06-25T06:20:47.263Z,5.20
2018-06-25T06:21:47.073Z,5.10
2018-06-25T06:22:47.288Z,5.40
2018-06-25T06:23:47.076Z,5.00
2018-06-25T06:24:47.064Z,5.20
2018-06-25T06:25:47.271Z,5.80
2018-06-25T06:26:47.077Z,5.50
2018-06-25T06:27:47.065Z,6.00
2018-06-25T06:28:47.279Z,6.20
2018-06-25T06:29:47.065Z,5.60
2018-06-25T06:30:47.268Z,5.90
2018-06-25T06:31:47.071Z,6.30
2018-06-25T06:32:47.079Z,5.80
2018-06-25T06:33:47.271Z,6.10
2018-06-25T06:34:47.271Z,7.00
2018-06-25T06:35:47.292Z,6.80
2018-06-25T06:36:47.070Z,6.90
2018-06-25T06:37:47.069Z,6.30
2018-06-25T06:38:47.070Z,6.60
2018-06-25T06:39:47.104Z,6.60
2018-06-25T06:40:47.096Z,5.90
2018-06-25T06:41:47.086Z,6.30
2018-06-25T06:42:47.073Z,5.70
2018-06-25T06:43:47.089Z,5.90
2018-06-25T06:44:47.086Z,6.10
2018-06-25T06:45:47.085Z,6.10
2018-06-25T06:46:47.076Z,5.80
2018-06-25T06:47:47.104Z,5.80
2018-06-25T06:48:47.090Z,6.10
2018-06-25T06:49:47.087Z,6.10
2018-06-25T06:50:47.077Z,6.20
2018-06-25T06:51:47.080Z,6.10
2018-06-25T06:52:47.289Z,7.00
2018-06-25T06:53:47.091Z,6.10
2018-06-25T06:54:47.090Z,7.70
2018-06-25T06:55:47.078Z,6.70
2018-06-25T06:56:47.092Z,7.10
2018-06-25T06:57:47.115Z,7.30
2018-06-25T06:58:47.094Z,7.50
2018-06-25T06:59:47.098Z,8.30
2018-06-25T07:00:47.081Z,7.50
2018-06-25T07:01:47.288Z,8.30
2018-06-25T07:02:47.296Z,8.20
2018-06-25T07:03:47.285Z,7.90
2018-06-25T07:04:47.140Z,9.10
2018-06-25T07:05:47.094Z,8.40
2018-06-25T07:06:47.296Z,8.50
2018-06-25T07:07:47.301Z,9.50
2018-06-25T07:08:47.086Z,11.10
2018-06-25T07:09:47.087Z,11.00
2018-06-25T07:10:47.085Z,11.60
2018-06-25T07:11:47.097Z,11.00
2018-06-25T07:12:47.097Z,11.30
2018-06-25T07:13:47.087Z,11.70
2018-06-25T07:14:47.087Z,13.70
2018-06-25T07:15:47.302Z,12.90
2018-06-25T07:16:47.091Z,10.80
2018-06-25T07:17:47.306Z,11.30
2018-06-25T07:18:47.091Z,11.90
2018-06-25T07:19:47.089Z,11.60
2018-06-25T07:20:47.242Z,11.40
2018-06-25T07:21:47.091Z,12.50
2018-06-25T07:22:47.107Z,12.80
2018-06-25T07:23:47.091Z,13.60
2018-06-25T07:24:47.308Z,13.90
2018-06-25T07:25:47.107Z,14.60
2018-06-25T07:26:47.095Z,13.90
2018-06-25T07:27:47.110Z,15.20
2018-06-25T07:28:47.348Z,15.70
2018-06-25T07:29:47.314Z,14.90
2018-06-25T07:30:47.098Z,15.80
2018-06-25T07:31:47.096Z,14.90
2018-06-25T07:32:47.109Z,15.10
2018-06-25T07:33:47.103Z,14.90
2018-06-25T07:34:47.125Z,14.80
2018-06-25T07:35:47.110Z,14.40
2018-06-25T07:36:47.101Z,14.70
2018-06-25T07:37:47.111Z,15.10
2018-06-25T07:38:47.103Z,14.90
2018-06-25T07:39:47.100Z,15.50
2018-06-25T07:40:47.114Z,15.20
2018-06-25T07:41:47.118Z,16.10
2018-06-25T07:42:47.132Z,16.70
2018-06-25T07:43:47.111Z,16.30
2018-06-25T07:44:47.115Z,17.90
2018-06-25T07:45:47.320Z,19.70
2018-06-25T07:46:47.308Z,21.10
2018-06-25T07:47:47.112Z,20.50
2018-06-25T07:48:47.305Z,20.30
2018-06-25T07:49:47.113Z,18.90
2018-06-25T07:50:47.111Z,20.10
2018-06-25T07:51:47.106Z,20.60
2018-06-25T07:52:47.108Z,20.50
2018-06-25T07:53:47.110Z,20.60
2018-06-25T07:54:47.318Z,19.70
2018-06-25T07:55:47.109Z,19.30
2018-06-25T07:56:47.110Z,19.60
2018-06-25T07:57:47.119Z,18.80
2018-06-25T07:58:47.109Z,18.60
2018-06-25T07:59:47.322Z,18.50
2018-06-25T08:00:47.314Z,18.90
2018-06-25T08:01:47.125Z,18.50
2018-06-25T08:02:47.113Z,17.70
2018-06-25T08:03:47.317Z,17.60
2018-06-25T08:04:47.113Z,17.50
2018-06-25T08:05:47.329Z,18.30
2018-06-25T08:06:47.316Z,17.60
2018-06-25T08:07:47.127Z,17.30
2018-06-25T08:08:47.127Z,17.00
2018-06-25T08:09:47.131Z,17.60
2018-06-25T08:10:47.320Z,19.70
2018-06-25T08:11:47.119Z,18.40
2018-06-25T08:12:47.321Z,19.00
2018-06-25T08:13:47.326Z,20.10
2018-06-25T08:14:47.323Z,19.80
2018-06-25T08:15:47.328Z,18.80
2018-06-25T08:16:47.341Z,18.70
2018-06-25T08:17:47.121Z,16.50
2018-06-25T08:18:47.341Z,15.30
2018-06-25T08:19:47.127Z,14.60
2018-06-25T08:20:47.125Z,14.20
2018-06-25T08:21:47.127Z,14.10
2018-06-25T08:22:47.136Z,14.80
2018-06-25T08:23:47.162Z,14.40
2018-06-25T08:24:47.141Z,14.10
2018-06-25T08:25:47.140Z,16.00
2018-06-25T08:26:47.131Z,15.00
2018-06-25T08:27:47.132Z,14.00
2018-06-25T08:28:47.149Z,14.70
2018-06-25T08:29:47.366Z,14.80
2018-06-25T08:30:47.144Z,14.70
2018-06-25T08:31:47.158Z,13.60
2018-06-25T08:32:47.178Z,14.50
2018-06-25T08:33:47.147Z,15.60
2018-06-25T08:34:47.163Z,15.70
2018-06-25T08:35:47.138Z,16.50
2018-06-25T08:36:47.136Z,16.00
2018-06-25T08:37:47.342Z,14.50
2018-06-25T08:38:47.358Z,15.90
2018-06-25T08:39:47.151Z,17.00
2018-06-25T08:40:47.344Z,15.50
2018-06-25T08:41:47.163Z,15.60
2018-06-25T08:42:47.143Z,16.20
2018-06-25T08:43:47.157Z,15.00
2018-06-25T08:44:47.154Z,16.50
2018-06-25T08:45:47.169Z,15.40
2018-06-25T08:46:47.160Z,15.70
2018-06-25T08:47:47.150Z,17.50
2018-06-25T08:48:47.159Z,17.20
2018-06-25T08:49:47.158Z,17.10
2018-06-25T08:50:47.163Z,16.90
2018-06-25T08:51:47.200Z,17.80
2018-06-25T08:52:47.151Z,17.60
2018-06-25T08:53:47.164Z,16.40
2018-06-25T08:54:47.154Z,17.50
2018-06-25T08:55:47.155Z,17.40
2018-06-25T08:56:47.361Z,17.90
2018-06-25T08:57:47.175Z,18.50
2018-06-25T08:58:47.157Z,18.90
2018-06-25T08:59:47.359Z,18.80
2018-06-25T09:00:47.364Z,18.80
2018-06-25T09:01:47.364Z,21.30
2018-06-25T09:02:47.160Z,20.80
2018-06-25T09:03:47.159Z,19.30
2018-06-25T09:04:47.166Z,21.30
2018-06-25T09:05:47.377Z,21.00
2018-06-25T09:06:47.164Z,20.60
2018-06-25T09:07:47.177Z,19.10
2018-06-25T09:08:47.168Z,18.90
2018-06-25T09:09:47.238Z,18.10
2018-06-25T09:10:47.386Z,18.30
2018-06-25T09:11:47.168Z,20.00
2018-06-25T09:12:47.171Z,18.40
2018-06-25T09:13:47.377Z,19.30
2018-06-25T09:14:47.173Z,19.20
2018-06-25T09:15:47.178Z,18.50
2018-06-25T09:16:47.176Z,18.50
2018-06-25T09:17:47.382Z,13.60
2018-06-25T09:18:47.380Z,13.70
2018-06-25T09:19:47.179Z,17.80
2018-06-25T09:20:47.180Z,12.70
2018-06-25T09:21:47.181Z,12.90
2018-06-25T09:22:47.385Z,12.50
2018-06-25T09:23:47.193Z,13.40
2018-06-25T09:24:47.186Z,12.70
2018-06-25T09:25:47.189Z,12.90
2018-06-25T09:26:47.198Z,13.00
2018-06-25T09:27:47.222Z,13.00
2018-06-25T09:28:47.193Z,12.40
2018-06-25T09:29:47.240Z,11.60
2018-06-25T09:30:47.202Z,12.40
2018-06-25T09:31:47.193Z,14.30
2018-06-25T09:32:47.413Z,12.90
2018-06-25T09:33:47.198Z,15.80
2018-06-25T09:34:47.402Z,19.70
2018-06-25T09:35:47.400Z,14.60
2018-06-25T09:36:47.217Z,9.80
2018-06-25T09:37:47.201Z,9.70
2018-06-25T09:38:47.202Z,10.20
2018-06-25T09:39:47.203Z,9.80
2018-06-25T09:40:47.257Z,9.50
2018-06-25T09:41:47.597Z,8.80
2018-06-25T09:42:47.422Z,10.40
2018-06-25T09:43:47.214Z,10.00
2018-06-25T09:44:47.224Z,11.40
2018-06-25T09:45:47.217Z,10.50
2018-06-25T09:46:47.228Z,10.80
2018-06-25T09:47:47.433Z,11.50
2018-06-25T09:48:47.228Z,11.60
2018-06-25T09:49:47.232Z,11.30
2018-06-25T09:50:47.433Z,11.10
2018-06-25T09:51:47.222Z,11.90
2018-06-25T09:52:47.223Z,13.10
2018-06-25T09:53:47.427Z,13.10
2018-06-25T09:54:47.282Z,11.40
2018-06-25T09:55:47.239Z,11.30
2018-06-25T09:56:47.433Z,12.90
2018-06-25T09:57:47.231Z,10.10
2018-06-25T09:58:47.435Z,10.70
2018-06-25T09:59:47.233Z,10.80
2018-06-25T10:00:47.254Z,11.00
2018-06-25T10:01:47.238Z,10.40
2018-06-25T10:02:47.241Z,9.60
2018-06-25T10:03:47.241Z,9.80
2018-06-25T10:04:47.254Z,10.30
2018-06-25T10:05:47.477Z,10.10
2018-06-25T10:06:47.448Z,9.70
2018-06-25T10:07:47.250Z,10.00
2018-06-25T10:08:47.249Z,10.10
2018-06-25T10:09:47.254Z,9.50
2018-06-25T10:10:47.456Z,9.40
2018-06-25T10:11:47.254Z,10.20
2018-06-25T10:12:47.467Z,9.60
2018-06-25T10:13:47.259Z,9.40
2018-06-25T10:14:47.263Z,9.10
2018-06-25T10:15:47.264Z,9.50
2018-06-25T10:16:47.266Z,9.60
2018-06-25T10:17:47.275Z,9.30
2018-06-25T10:18:47.267Z,9.50
2018-06-25T10:19:47.469Z,9.50
2018-06-25T10:20:47.285Z,9.20
2018-06-25T10:21:47.281Z,9.10
2018-06-25T10:22:47.480Z,8.80
2018-06-25T10:23:47.477Z,8.30
2018-06-25T10:24:47.278Z,8.80
2018-06-25T10:25:47.293Z,8.50
2018-06-25T10:26:47.496Z,8.60
2018-06-25T10:27:47.281Z,8.80
2018-06-25T10:28:47.285Z,8.80
2018-06-25T10:29:47.498Z,8.50
2018-06-25T10:30:47.301Z,8.50
2018-06-25T10:31:47.300Z,8.30
2018-06-25T10:32:47.307Z,7.70
2018-06-25T10:33:47.307Z,9.00
2018-06-25T10:34:47.330Z,8.90
2018-06-25T10:35:47.305Z,12.10
2018-06-25T10:36:47.500Z,9.40
2018-06-25T10:37:47.297Z,10.00
2018-06-25T10:38:47.301Z,10.00
2018-06-25T10:39:47.316Z,10.50
2018-06-25T10:40:47.303Z,9.60
2018-06-25T10:41:47.319Z,8.70
2018-06-25T10:42:47.318Z,11.10
2018-06-25T10:43:47.306Z,11.90
2018-06-25T10:44:47.310Z,12.00
2018-06-25T10:45:47.313Z,13.30
2018-06-25T10:46:47.324Z,16.20
2018-06-25T10:47:47.326Z,19.20
2018-06-25T10:48:47.320Z,20.20
2018-06-25T10:49:47.320Z,20.80
2018-06-25T10:50:47.322Z,21.20
2018-06-25T10:51:47.531Z,21.10
2018-06-25T10:52:47.322Z,21.70
2018-06-25T10:53:47.323Z,22.70
2018-06-25T10:54:47.324Z,24.20
2018-06-25T10:55:47.530Z,25.30
2018-06-25T10:56:47.326Z,24.10
2018-06-25T10:57:47.330Z,24.90
2018-06-25T10:58:47.335Z,24.20
2018-06-25T10:59:47.506Z,23.60
2018-06-25T11:00:47.335Z,23.90
2018-06-25T11:01:47.539Z,23.00
2018-06-25T11:02:47.348Z,23.40
2018-06-25T11:03:47.340Z,23.10
2018-06-25T11:04:47.347Z,21.30
2018-06-25T11:05:47.368Z,23.00
2018-06-25T11:06:47.346Z,23.90
2018-06-25T11:07:47.439Z,24.20
2018-06-25T11:08:47.362Z,24.60
2018-06-25T11:09:47.551Z,23.90
2018-06-25T11:10:47.553Z,23.80
2018-06-25T11:11:47.556Z,23.80
2018-06-25T11:12:47.390Z,24.70
2018-06-25T11:13:47.359Z,25.20
2018-06-25T11:14:47.365Z,25.50
2018-06-25T11:15:47.567Z,26.30
2018-06-25T11:16:47.362Z,25.90
2018-06-25T11:17:47.577Z,24.50
2018-06-25T11:18:47.367Z,23.10
2018-06-25T11:19:47.372Z,23.20
2018-06-25T11:20:47.372Z,23.30
2018-06-25T11:21:47.574Z,21.30
2018-06-25T11:22:47.387Z,22.40
2018-06-25T11:23:47.588Z,23.50
2018-06-25T11:24:47.577Z,22.20
2018-06-25T11:25:47.581Z,23.10
2018-06-25T11:26:47.420Z,23.70
2018-06-25T11:27:47.654Z,22.10
2018-06-25T11:28:47.596Z,20.80
2018-06-25T11:29:47.386Z,21.70
2018-06-25T11:30:47.593Z,23.50
2018-06-25T11:31:47.402Z,23.70
2018-06-25T11:32:47.604Z,22.40
2018-06-25T11:33:47.625Z,24.70
2018-06-25T11:34:47.410Z,23.70
2018-06-25T11:35:47.397Z,23.60
2018-06-25T11:36:47.611Z,23.10
2018-06-25T11:37:47.404Z,22.40
2018-06-25T11:38:47.419Z,24.60
2018-06-25T11:39:47.411Z,23.40
2018-06-25T11:40:47.410Z,22.40
2018-06-25T11:41:47.467Z,20.90
2018-06-25T11:42:47.410Z,20.00
2018-06-25T11:43:47.415Z,19.50
2018-06-25T11:44:47.416Z,19.50
2018-06-25T11:45:47.422Z,19.10
2018-06-25T11:46:47.636Z,18.10
2018-06-25T11:47:47.623Z,18.20
2018-06-25T11:48:47.423Z,17.60
2018-06-25T11:49:47.439Z,17.00
2018-06-25T11:50:47.442Z,17.60
2018-06-25T11:51:47.503Z,17.40
2018-06-25T11:52:47.434Z,20.60
2018-06-25T11:53:47.436Z,22.50
2018-06-25T11:54:47.436Z,19.00
2018-06-25T11:55:47.447Z,19.30
2018-06-25T11:56:47.651Z,16.50
2018-06-25T11:57:47.442Z,15.60
2018-06-25T11:58:47.443Z,15.80
2018-06-25T11:59:47.648Z,16.00
2018-06-25T12:00:47.446Z,14.80
2018-06-25T12:01:47.544Z,14.30
2018-06-25T12:02:47.527Z,14.20
2018-06-25T12:03:47.666Z,13.70
2018-06-25T12:04:47.454Z,13.60
2018-06-25T12:05:47.472Z,12.30
2018-06-25T12:06:47.462Z,12.20
2018-06-25T12:07:47.472Z,11.50
2018-06-25T12:08:47.463Z,10.30
2018-06-25T12:09:47.475Z,11.40
2018-06-25T12:10:47.469Z,11.70
2018-06-25T12:11:47.476Z,10.80
2018-06-25T12:12:47.487Z,11.00
2018-06-25T12:13:47.524Z,11.20
2018-06-25T12:14:47.476Z,10.80
2018-06-25T12:15:47.701Z,10.70
2018-06-25T12:16:47.484Z,10.70
2018-06-25T12:17:47.483Z,10.40
2018-06-25T12:18:47.686Z,10.60
2018-06-25T12:19:47.524Z,10.00
2018-06-25T12:20:47.491Z,9.30
2018-06-25T12:21:47.696Z,8.90
2018-06-25T12:22:47.502Z,8.80
2018-06-25T12:23:47.507Z,10.10
2018-06-25T12:24:47.519Z,10.60
2018-06-25T12:25:47.516Z,10.00
2018-06-25T12:26:47.505Z,9.00
2018-06-25T12:27:47.588Z,8.70
2018-06-25T12:28:47.505Z,8.20
2018-06-25T12:29:47.510Z,8.50
2018-06-25T12:30:47.512Z,8.00
2018-06-25T12:31:47.521Z,8.20
2018-06-25T12:32:47.523Z,8.00
2018-06-25T12:33:47.527Z,7.70
2018-06-25T12:34:47.520Z,8.30
2018-06-25T12:35:47.519Z,7.50
2018-06-25T12:36:47.521Z,6.80
2018-06-25T12:37:47.536Z,6.60
2018-06-25T12:38:47.531Z,7.10
2018-06-25T12:39:47.535Z,7.50
2018-06-25T12:40:47.539Z,7.80
2018-06-25T12:41:47.534Z,8.30
2018-06-25T12:42:47.536Z,9.30
2018-06-25T12:43:47.539Z,10.50
2018-06-25T12:44:47.538Z,10.80
2018-06-25T12:45:47.750Z,10.60
2018-06-25T12:46:47.545Z,9.60
2018-06-25T12:47:47.546Z,8.90
2018-06-25T12:48:47.549Z,8.50
2018-06-25T12:49:47.560Z,8.20
2018-06-25T12:50:47.779Z,7.60
2018-06-25T12:51:47.554Z,8.20
2018-06-25T12:52:47.573Z,7.70
2018-06-25T12:53:47.611Z,8.70
2018-06-25T12:54:47.575Z,8.10
2018-06-25T12:55:47.577Z,8.00
2018-06-25T12:56:47.774Z,7.60
2018-06-25T12:57:47.772Z,6.90
2018-06-25T12:58:47.574Z,7.00
2018-06-25T12:59:47.573Z,6.20
2018-06-25T13:00:47.785Z,5.50
2018-06-25T13:01:47.578Z,5.80
2018-06-25T13:02:47.582Z,6.60
2018-06-25T13:03:47.790Z,5.50
2018-06-25T13:04:47.603Z,5.70
2018-06-25T13:05:47.602Z,5.60